createdAt,value
2019-03-05T00:00:39.101Z,0
2019-03-05T00:01:39.115Z,0
2019-03-05T00:02:39.332Z,0
2019-03-05T00:03:39.834Z,0
2019-03-05T00:04:39.850Z,0
2019-03-05T00:05:39.841Z,0
2019-03-05T00:06:39.634Z,0
2019-03-05T00:07:39.321Z,0
2019-03-05T00:08:39.056Z,0
2019-03-05T00:09:39.635Z,0
2019-03-05T00:10:39.565Z,0
2019-03-05T00:11:39.277Z,0
2019-03-05T00:12:39.294Z,0
2019-03-05T00:13:39.247Z,0
2019-03-05T00:14:39.233Z,0
2019-03-05T00:15:38.968Z,0
2019-03-05T00:16:39.705Z,0
2019-03-05T00:17:39.791Z,0
2019-03-05T00:18:39.722Z,0
2019-03-05T00:19:39.200Z,0
2019-03-05T00:20:39.413Z,0
2019-03-05T00:21:39.172Z,0
2019-03-05T00:22:39.414Z,0
2019-03-05T00:23:39.159Z,0
2019-03-05T00:24:39.398Z,0
2019-03-05T00:25:39.639Z,0
2019-03-05T00:26:38.876Z,0
2019-03-05T00:27:39.369Z,0
2019-03-05T00:28:39.348Z,0
2019-03-05T00:29:38.863Z,0
2019-03-05T00:30:38.906Z,0
2019-03-05T00:31:39.574Z,0
2019-03-05T00:32:38.852Z,0
2019-03-05T00:33:42.055Z,0
2019-03-05T00:34:39.049Z,0
2019-03-05T00:35:39.313Z,0
2019-03-05T00:36:39.033Z,0
2019-03-05T00:37:39.055Z,0
2019-03-05T00:38:39.284Z,0
2019-03-05T00:39:39.011Z,0
2019-03-05T00:40:39.498Z,0
2019-03-05T00:41:38.490Z,0
2019-03-05T00:42:38.985Z,0
2019-03-05T00:43:38.973Z,0
2019-03-05T00:44:38.713Z,0
2019-03-05T00:45:39.479Z,0
2019-03-05T00:46:39.183Z,0
2019-03-05T00:47:39.173Z,0
2019-03-05T00:48:38.917Z,0
2019-03-05T00:49:39.148Z,0
2019-03-05T00:50:38.670Z,0
2019-03-05T00:51:39.397Z,0
2019-03-05T00:52:38.878Z,0
2019-03-05T00:53:38.645Z,0
2019-03-05T00:54:39.363Z,0
2019-03-05T00:55:39.164Z,0
2019-03-05T00:56:39.338Z,0
2019-03-05T00:57:39.358Z,0
2019-03-05T00:58:39.078Z,0
2019-03-05T00:59:39.100Z,0
2019-03-05T01:00:38.593Z,0
2019-03-05T01:01:39.300Z,0
2019-03-05T01:02:38.786Z,0
2019-03-05T01:03:40.528Z,0
2019-03-05T01:04:38.778Z,0
2019-03-05T01:05:39.020Z,0
2019-03-05T01:06:39.027Z,0
2019-03-05T01:07:39.346Z,0
2019-03-05T01:08:39.277Z,0
2019-03-05T01:09:38.747Z,0
2019-03-05T01:10:38.477Z,0
2019-03-05T01:11:38.983Z,0
2019-03-05T01:12:38.752Z,0
2019-03-05T01:13:38.952Z,0
2019-03-05T01:14:38.701Z,0
2019-03-05T01:15:38.430Z,0
2019-03-05T01:16:38.426Z,0
2019-03-05T01:17:38.669Z,0
2019-03-05T01:18:38.929Z,0
2019-03-05T01:19:38.660Z,0
2019-03-05T01:20:38.882Z,0
2019-03-05T01:21:38.885Z,0
2019-03-05T01:22:38.892Z,0
2019-03-05T01:23:38.849Z,0
2019-03-05T01:24:38.604Z,0
2019-03-05T01:25:38.620Z,0
2019-03-05T01:26:38.605Z,0
2019-03-05T01:27:38.837Z,0
2019-03-05T01:28:38.576Z,0
2019-03-05T01:29:38.792Z,0
2019-03-05T01:30:38.822Z,0
2019-03-05T01:31:38.588Z,0
2019-03-05T01:32:38.795Z,0
2019-03-05T01:33:38.756Z,0
2019-03-05T01:34:38.760Z,0
2019-03-05T01:35:38.755Z,0
2019-03-05T01:36:38.816Z,0
2019-03-05T01:37:38.231Z,0
2019-03-05T01:38:38.472Z,0
2019-03-05T01:39:38.773Z,0
2019-03-05T01:40:38.964Z,0
2019-03-05T01:41:38.458Z,0
2019-03-05T01:42:38.426Z,0
2019-03-05T01:43:38.431Z,0
2019-03-05T01:44:39.243Z,0
2019-03-05T01:45:38.980Z,0
2019-03-05T01:46:38.654Z,0
2019-03-05T01:47:38.397Z,0
2019-03-05T01:48:38.380Z,0
2019-03-05T01:49:38.389Z,0
2019-03-05T01:50:38.615Z,0
2019-03-05T01:51:38.602Z,0
2019-03-05T01:52:38.358Z,0
2019-03-05T01:53:38.093Z,0
2019-03-05T01:54:38.379Z,0
2019-03-05T01:55:38.570Z,0
2019-03-05T01:56:38.814Z,0
2019-03-05T01:57:38.828Z,0
2019-03-05T01:58:38.786Z,0
2019-03-05T01:59:38.533Z,0
2019-03-05T02:00:38.551Z,0
2019-03-05T02:01:38.531Z,0
2019-03-05T02:02:38.515Z,0
2019-03-05T02:03:38.306Z,0
2019-03-05T02:05:41.998Z,0
2019-03-05T02:05:52.121Z,0
2019-03-05T02:06:52.115Z,0
2019-03-05T02:07:52.298Z,0
2019-03-05T02:08:52.277Z,0
2019-03-05T02:09:52.046Z,0
2019-03-05T02:10:52.309Z,0
2019-03-05T02:11:52.003Z,0
2019-03-05T02:12:52.266Z,0
2019-03-05T02:13:52.227Z,0
2019-03-05T02:14:51.975Z,0
2019-03-05T02:15:52.161Z,0
2019-03-05T02:16:52.205Z,0
2019-03-05T02:17:52.250Z,0
2019-03-05T02:18:52.139Z,0
2019-03-05T02:19:52.174Z,0
2019-03-05T02:20:52.333Z,0
2019-03-05T02:21:52.166Z,0
2019-03-05T02:22:52.162Z,0
2019-03-05T02:23:52.205Z,0
2019-03-05T02:24:52.162Z,0
2019-03-05T02:25:51.856Z,0
2019-03-05T02:26:52.067Z,0
2019-03-05T02:27:52.089Z,0
2019-03-05T02:28:52.089Z,0
2019-03-05T02:29:52.080Z,0
2019-03-05T02:30:52.070Z,0
2019-03-05T02:31:52.106Z,0
2019-03-05T02:32:51.972Z,0
2019-03-05T02:33:51.806Z,0
2019-03-05T02:34:52.038Z,0
2019-03-05T02:35:52.150Z,0
2019-03-05T02:36:52.032Z,0
2019-03-05T02:37:52.022Z,0
2019-03-05T02:38:52.024Z,0
2019-03-05T02:39:52.114Z,0
2019-03-05T02:40:52.012Z,0
2019-03-05T02:41:51.961Z,0
2019-03-05T02:42:51.596Z,0
2019-03-05T02:43:51.416Z,0
2019-03-05T02:44:51.962Z,0
2019-03-05T02:45:51.963Z,0
2019-03-05T02:46:51.922Z,0
2019-03-05T02:47:51.656Z,0
2019-03-05T02:48:51.948Z,0
2019-03-05T02:49:51.987Z,0
2019-03-05T02:50:51.947Z,0
2019-03-05T02:51:51.692Z,0
2019-03-05T02:52:51.895Z,0
2019-03-05T02:53:51.621Z,0
2019-03-05T02:54:51.847Z,0
2019-03-05T02:55:51.613Z,0
2019-03-05T02:56:51.831Z,0
2019-03-05T02:57:51.685Z,0
2019-03-05T02:58:51.847Z,0
2019-03-05T02:59:51.879Z,0
2019-03-05T03:00:51.286Z,0
2019-03-05T03:01:51.824Z,0
2019-03-05T03:02:51.817Z,0
2019-03-05T03:03:51.500Z,0
2019-03-05T03:04:51.783Z,0
2019-03-05T03:05:51.574Z,0
2019-03-05T03:06:51.785Z,0
2019-03-05T03:07:51.516Z,0
2019-03-05T03:08:51.743Z,0
2019-03-05T03:09:51.699Z,0
2019-03-05T03:10:51.447Z,0
2019-03-05T03:11:51.433Z,0
2019-03-05T03:12:51.786Z,0
2019-03-05T03:13:51.141Z,0
2019-03-05T03:14:51.688Z,0
2019-03-05T03:15:51.191Z,0
2019-03-05T03:16:51.452Z,0
2019-03-05T03:17:51.664Z,0
2019-03-05T03:18:51.626Z,0
2019-03-05T03:19:51.708Z,0
2019-03-05T03:20:51.800Z,0
2019-03-05T03:21:51.410Z,0
2019-03-05T03:22:51.681Z,0
2019-03-05T03:23:51.634Z,0
2019-03-05T03:24:51.623Z,0
2019-03-05T03:25:51.614Z,0
2019-03-05T03:26:51.267Z,0
2019-03-05T03:27:51.290Z,0
2019-03-05T03:28:51.646Z,0
2019-03-05T03:29:51.653Z,0
2019-03-05T03:30:51.372Z,0
2019-03-05T03:31:51.324Z,0
2019-03-05T03:32:51.352Z,0
2019-03-05T03:33:51.354Z,0
2019-03-05T03:34:51.780Z,0
2019-03-05T03:35:51.542Z,0
2019-03-05T03:36:51.468Z,0
2019-03-05T03:37:51.502Z,0
2019-03-05T03:38:51.483Z,0
2019-03-05T03:39:51.191Z,0
2019-03-05T03:40:51.504Z,0
2019-03-05T03:41:51.232Z,0
2019-03-05T03:42:51.508Z,0
2019-03-05T03:43:51.227Z,0
2019-03-05T03:44:51.492Z,0
2019-03-05T03:45:51.179Z,0
2019-03-05T03:46:51.409Z,0
2019-03-05T03:47:51.127Z,0
2019-03-05T03:48:51.331Z,0
2019-03-05T03:49:51.412Z,0
2019-03-05T03:50:51.352Z,0
2019-03-05T03:51:53.927Z,0
2019-03-05T03:52:51.441Z,0
2019-03-05T03:53:51.354Z,0
2019-03-05T03:54:51.389Z,0
2019-03-05T03:55:51.341Z,0
2019-03-05T03:56:51.395Z,0
2019-03-05T03:57:51.444Z,0
2019-03-05T03:58:50.808Z,0
2019-03-05T03:59:51.300Z,0
2019-03-05T04:00:51.343Z,0
2019-03-05T04:01:50.839Z,0
2019-03-05T04:02:50.987Z,0
2019-03-05T04:03:51.259Z,0
2019-03-05T04:04:51.257Z,0
2019-03-05T04:05:52.428Z,0
2019-03-05T04:06:51.245Z,0
2019-03-05T04:07:50.977Z,0
2019-03-05T04:08:51.464Z,0
2019-03-05T04:09:51.233Z,0
2019-03-05T04:10:51.206Z,0
2019-03-05T04:11:51.033Z,0
2019-03-05T04:12:51.258Z,0
2019-03-05T04:13:50.993Z,0
2019-03-05T04:14:50.964Z,0
2019-03-05T04:15:50.927Z,0
2019-03-05T04:16:50.952Z,0
2019-03-05T04:17:51.176Z,0
2019-03-05T04:18:51.217Z,0
2019-03-05T04:19:51.189Z,0
2019-03-05T04:20:51.166Z,0
2019-03-05T04:21:51.158Z,0
2019-03-05T04:22:51.000Z,0
2019-03-05T04:23:51.123Z,0
2019-03-05T04:24:51.087Z,0
2019-03-05T04:25:51.170Z,0
2019-03-05T04:26:50.806Z,0
2019-03-05T04:27:51.056Z,0
2019-03-05T04:28:50.803Z,0
2019-03-05T04:29:51.031Z,0
2019-03-05T04:30:51.025Z,0
2019-03-05T04:31:50.713Z,0
2019-03-05T04:32:50.702Z,0
2019-03-05T04:33:50.714Z,0
2019-03-05T04:34:50.662Z,0
2019-03-05T04:35:50.154Z,0
2019-03-05T04:36:50.647Z,0
2019-03-05T04:37:49.900Z,0
2019-03-05T04:38:50.640Z,0
2019-03-05T04:39:50.373Z,0
2019-03-05T04:40:50.117Z,0
2019-03-05T04:41:50.604Z,0
2019-03-05T04:42:50.348Z,0
2019-03-05T04:43:50.349Z,0
2019-03-05T04:44:50.588Z,0
2019-03-05T04:45:50.058Z,0
2019-03-05T04:46:50.606Z,0
2019-03-05T04:47:50.544Z,0
2019-03-05T04:48:50.046Z,0
2019-03-05T04:49:50.306Z,0
2019-03-05T04:50:50.030Z,0
2019-03-05T04:51:50.525Z,0
2019-03-05T04:52:50.546Z,0
2019-03-05T04:53:50.508Z,0
2019-03-05T04:54:50.512Z,0
2019-03-05T04:55:49.977Z,0
2019-03-05T04:56:50.281Z,0
2019-03-05T04:57:50.295Z,0
2019-03-05T04:58:49.966Z,0
2019-03-05T04:59:49.943Z,0
2019-03-05T05:00:50.488Z,0
2019-03-05T05:01:49.698Z,0
2019-03-05T05:02:49.669Z,0
2019-03-05T05:03:50.155Z,0
2019-03-05T05:04:50.136Z,0
2019-03-05T05:05:50.429Z,0
2019-03-05T05:06:51.468Z,0
2019-03-05T05:07:50.448Z,0
2019-03-05T05:08:50.358Z,0
2019-03-05T05:09:50.360Z,0
2019-03-05T05:10:50.091Z,0
2019-03-05T05:11:49.589Z,0
2019-03-05T05:12:49.580Z,0
2019-03-05T05:13:49.829Z,0
2019-03-05T05:14:50.059Z,0
2019-03-05T05:15:49.794Z,0
2019-03-05T05:16:50.307Z,0
2019-03-05T05:17:50.052Z,0
2019-03-05T05:18:50.011Z,0
2019-03-05T05:19:50.015Z,0
2019-03-05T05:20:50.243Z,0
2019-03-05T05:21:49.734Z,0
2019-03-05T05:22:50.214Z,0
2019-03-05T05:23:50.230Z,0
2019-03-05T05:24:49.718Z,0
2019-03-05T05:25:49.959Z,0
2019-03-05T05:26:50.239Z,0
2019-03-05T05:27:49.693Z,0
2019-03-05T05:28:50.182Z,0
2019-03-05T05:29:49.655Z,0
2019-03-05T05:30:50.191Z,0
2019-03-05T05:31:49.909Z,0
2019-03-05T05:32:49.883Z,0
2019-03-05T05:33:49.864Z,0
2019-03-05T05:34:49.858Z,0
2019-03-05T05:35:49.361Z,0
2019-03-05T05:36:52.069Z,0
2019-03-05T05:37:50.078Z,0
2019-03-05T05:38:49.891Z,0
2019-03-05T05:39:50.089Z,0
2019-03-05T05:40:50.043Z,0
2019-03-05T05:41:49.776Z,0
2019-03-05T05:42:49.541Z,0
2019-03-05T05:43:49.841Z,0
2019-03-05T05:44:49.766Z,0
2019-03-05T05:45:49.760Z,0
2019-03-05T05:46:49.760Z,0
2019-03-05T05:47:49.724Z,0
2019-03-05T05:48:49.781Z,0
2019-03-05T05:49:49.960Z,0
2019-03-05T05:50:49.213Z,0
2019-03-05T05:51:51.324Z,0
2019-03-05T05:52:49.438Z,0
2019-03-05T05:53:49.923Z,5
2019-03-05T05:54:49.904Z,5
2019-03-05T05:55:49.650Z,5
2019-03-05T05:56:49.657Z,5
2019-03-05T05:57:49.887Z,5
2019-03-05T05:58:49.876Z,5
2019-03-05T05:59:49.621Z,5
2019-03-05T06:00:49.863Z,10
2019-03-05T06:01:49.640Z,10
2019-03-05T06:02:49.613Z,10
2019-03-05T06:03:49.826Z,10
2019-03-05T06:04:49.326Z,10
2019-03-05T06:05:49.621Z,15
2019-03-05T06:06:49.060Z,15
2019-03-05T06:07:50.903Z,15
2019-03-05T06:08:49.526Z,15
2019-03-05T06:09:49.557Z,20
2019-03-05T06:10:49.518Z,20
2019-03-05T06:11:49.519Z,20
2019-03-05T06:12:49.495Z,20
2019-03-05T06:13:49.781Z,25
2019-03-05T06:14:49.484Z,25
2019-03-05T06:15:49.221Z,25
2019-03-05T06:16:49.713Z,30
2019-03-05T06:17:49.500Z,30
2019-03-05T06:18:49.200Z,30
2019-03-05T06:19:49.678Z,35
2019-03-05T06:20:51.654Z,35
2019-03-05T06:21:49.410Z,35
2019-03-05T06:22:49.653Z,40
2019-03-05T06:23:49.395Z,40
2019-03-05T06:24:49.386Z,40
2019-03-05T06:25:48.902Z,45
2019-03-05T06:26:49.384Z,45
2019-03-05T06:27:49.109Z,45
2019-03-05T06:28:49.591Z,45
2019-03-05T06:29:49.586Z,50
2019-03-05T06:30:49.087Z,50
2019-03-05T06:31:49.561Z,55
2019-03-05T06:32:49.329Z,60
2019-03-05T06:33:49.050Z,55
2019-03-05T06:34:49.314Z,55
2019-03-05T06:35:49.303Z,55
2019-03-05T06:36:49.031Z,60
2019-03-05T06:37:49.533Z,60
2019-03-05T06:38:49.017Z,60
2019-03-05T06:39:49.021Z,60
2019-03-05T06:40:49.257Z,60
2019-03-05T06:41:49.238Z,60
2019-03-05T06:42:48.974Z,65
2019-03-05T06:43:48.984Z,70
2019-03-05T06:44:49.455Z,80
2019-03-05T06:45:49.445Z,80
2019-03-05T06:46:48.931Z,75
2019-03-05T06:47:49.449Z,80
2019-03-05T06:48:49.448Z,75
2019-03-05T06:49:49.164Z,75
2019-03-05T06:50:49.447Z,75
2019-03-05T06:51:49.389Z,75
2019-03-05T06:52:48.901Z,70
2019-03-05T06:53:49.387Z,65
2019-03-05T06:54:48.893Z,65
2019-03-05T06:55:48.874Z,65
2019-03-05T06:56:48.888Z,65
2019-03-05T06:57:48.867Z,70
2019-03-05T06:58:49.104Z,70
2019-03-05T06:59:49.331Z,65
2019-03-05T07:00:49.405Z,65
2019-03-05T07:01:49.058Z,60
2019-03-05T07:02:48.559Z,60
2019-03-05T07:03:48.847Z,60
2019-03-05T07:04:48.793Z,60
2019-03-05T07:05:49.053Z,65
2019-03-05T07:06:48.774Z,65
2019-03-05T07:07:49.178Z,65
2019-03-05T07:08:48.998Z,65
2019-03-05T07:09:48.995Z,65
2019-03-05T07:10:49.029Z,70
2019-03-05T07:11:48.743Z,70
2019-03-05T07:12:48.967Z,75
2019-03-05T07:13:48.979Z,75
2019-03-05T07:14:48.714Z,80
2019-03-05T07:15:49.212Z,80
2019-03-05T07:16:48.717Z,80
2019-03-05T07:17:48.489Z,80
2019-03-05T07:18:49.198Z,80
2019-03-05T07:19:59.905Z,80
2019-03-05T07:20:48.918Z,80
2019-03-05T07:21:48.688Z,80
2019-03-05T07:22:49.160Z,85
2019-03-05T07:23:50.103Z,85
2019-03-05T07:24:48.762Z,90
2019-03-05T07:25:49.146Z,95
2019-03-05T07:26:48.393Z,95
2019-03-05T07:27:48.866Z,105
2019-03-05T07:28:48.353Z,110
2019-03-05T07:29:48.630Z,110
2019-03-05T07:30:48.900Z,110
2019-03-05T07:31:48.843Z,115
2019-03-05T07:32:48.837Z,125
2019-03-05T07:33:48.584Z,130
2019-03-05T07:34:48.703Z,135
2019-03-05T07:35:48.323Z,145
2019-03-05T07:36:50.165Z,140
2019-03-05T07:37:49.373Z,140
2019-03-05T07:38:48.572Z,140
2019-03-05T07:39:48.554Z,135
2019-03-05T07:40:49.043Z,135
2019-03-05T07:41:50.640Z,135
2019-03-05T07:42:49.226Z,135
2019-03-05T07:43:48.804Z,135
2019-03-05T07:44:48.538Z,135
2019-03-05T07:45:48.765Z,135
2019-03-05T07:46:48.492Z,135
2019-03-05T07:47:49.471Z,135
2019-03-05T07:48:48.486Z,135
2019-03-05T07:49:53.350Z,140
2019-03-05T07:50:48.481Z,135
2019-03-05T07:51:48.465Z,135
2019-03-05T07:52:48.725Z,130
2019-03-05T07:53:48.235Z,130
2019-03-05T07:54:48.941Z,130
2019-03-05T07:55:48.428Z,125
2019-03-05T07:56:48.943Z,130
2019-03-05T07:57:48.416Z,130
2019-03-05T07:58:48.696Z,135
2019-03-05T07:59:48.918Z,135
2019-03-05T08:00:48.653Z,140
2019-03-05T08:01:48.165Z,140
2019-03-05T08:02:48.426Z,140
2019-03-05T08:03:48.643Z,140
2019-03-05T08:04:48.412Z,140
2019-03-05T08:05:50.086Z,140
2019-03-05T08:06:48.653Z,140
2019-03-05T08:07:48.642Z,140
2019-03-05T08:08:48.101Z,140
2019-03-05T08:09:48.590Z,140
2019-03-05T08:10:48.845Z,145
2019-03-05T08:11:48.600Z,145
2019-03-05T08:12:48.343Z,175
2019-03-05T08:13:48.576Z,230
2019-03-05T08:14:48.851Z,205
2019-03-05T08:15:48.566Z,160
2019-03-05T08:16:48.565Z,240
2019-03-05T08:17:49.593Z,185
2019-03-05T08:18:48.589Z,165
2019-03-05T08:19:48.323Z,175
2019-03-05T08:20:48.789Z,235
2019-03-05T08:21:48.314Z,255
2019-03-05T08:22:48.291Z,255
2019-03-05T08:23:50.733Z,245
2019-03-05T08:24:48.021Z,245
2019-03-05T08:25:48.317Z,220
2019-03-05T08:26:48.022Z,245
2019-03-05T08:27:50.607Z,165
2019-03-05T08:28:48.775Z,200
2019-03-05T08:29:48.503Z,235
2019-03-05T08:30:48.254Z,215
2019-03-05T08:31:48.324Z,185
2019-03-05T08:32:48.238Z,255
2019-03-05T08:33:48.511Z,265
2019-03-05T08:34:48.496Z,190
2019-03-05T08:35:48.233Z,260
2019-03-05T08:36:47.738Z,275
2019-03-05T08:37:48.731Z,220
2019-03-05T08:38:47.741Z,215
2019-03-05T08:39:48.486Z,250
2019-03-05T08:40:48.210Z,205
2019-03-05T08:41:48.538Z,215
2019-03-05T08:42:48.683Z,225
2019-03-05T08:43:48.692Z,205
2019-03-05T08:44:58.736Z,200
2019-03-05T08:45:48.452Z,220
2019-03-05T08:46:48.197Z,225
2019-03-05T08:47:48.199Z,225
2019-03-05T08:48:48.426Z,280
2019-03-05T08:49:48.200Z,230
2019-03-05T08:50:48.448Z,290
2019-03-05T08:51:48.037Z,250
2019-03-05T08:52:48.208Z,195
2019-03-05T08:53:58.772Z,210
2019-03-05T08:54:49.836Z,180
2019-03-05T08:55:47.932Z,195
2019-03-05T08:56:47.886Z,175
2019-03-05T08:57:48.141Z,195
2019-03-05T08:58:48.387Z,220
2019-03-05T08:59:48.389Z,165
2019-03-05T09:00:50.658Z,170
2019-03-05T09:01:48.160Z,165
2019-03-05T09:02:57.513Z,165
2019-03-05T09:03:48.174Z,175
2019-03-05T09:04:48.114Z,245
2019-03-05T09:05:48.115Z,190
2019-03-05T09:06:48.368Z,195
2019-03-05T09:07:48.094Z,195
2019-03-05T09:08:48.826Z,210
2019-03-05T09:09:48.097Z,235
2019-03-05T09:10:48.362Z,260
2019-03-05T09:11:48.352Z,255
2019-03-05T09:12:48.152Z,175
2019-03-05T09:13:48.119Z,210
2019-03-05T09:14:48.049Z,225
2019-03-05T09:15:48.048Z,205
2019-03-05T09:16:48.313Z,265
2019-03-05T09:17:48.530Z,275
2019-03-05T09:18:48.297Z,200
2019-03-05T09:19:48.036Z,275
2019-03-05T09:20:48.280Z,275
2019-03-05T09:21:49.202Z,270
2019-03-05T09:22:48.300Z,260
2019-03-05T09:23:48.277Z,265
2019-03-05T09:24:48.313Z,260
2019-03-05T09:25:48.049Z,260
2019-03-05T09:26:57.882Z,275
2019-03-05T09:27:48.284Z,280
2019-03-05T09:28:48.000Z,280
2019-03-05T09:29:48.498Z,275
2019-03-05T09:30:47.994Z,235
2019-03-05T09:31:48.016Z,270
2019-03-05T09:32:47.980Z,265
2019-03-05T09:33:48.229Z,220
2019-03-05T09:34:48.226Z,255
2019-03-05T09:35:47.965Z,260
2019-03-05T09:36:59.575Z,210
2019-03-05T09:37:48.259Z,260
2019-03-05T09:38:52.976Z,260
2019-03-05T09:39:48.190Z,260
2019-03-05T09:40:47.946Z,265
2019-03-05T09:41:48.190Z,180
2019-03-05T09:42:49.000Z,260
2019-03-05T09:43:47.939Z,250
2019-03-05T09:44:47.930Z,260
2019-03-05T09:45:48.210Z,215
2019-03-05T09:46:47.919Z,260
2019-03-05T09:47:47.675Z,255
2019-03-05T09:48:47.924Z,255
2019-03-05T09:49:48.413Z,260
2019-03-05T09:50:47.895Z,185
2019-03-05T09:51:48.149Z,245
2019-03-05T09:52:58.959Z,270
2019-03-05T09:53:47.904Z,275
2019-03-05T09:54:48.115Z,275
2019-03-05T09:55:48.360Z,285
2019-03-05T09:56:47.664Z,285
2019-03-05T09:57:47.884Z,300
2019-03-05T09:58:47.898Z,315
2019-03-05T09:59:47.616Z,320
2019-03-05T10:00:47.876Z,315
2019-03-05T10:01:48.092Z,315
2019-03-05T10:02:47.859Z,320
2019-03-05T10:03:47.854Z,330
2019-03-05T10:04:48.095Z,335
2019-03-05T10:05:47.616Z,350
2019-03-05T10:06:47.595Z,335
2019-03-05T10:07:48.373Z,320
2019-03-05T10:08:49.726Z,315
2019-03-05T10:09:47.560Z,325
2019-03-05T10:10:48.071Z,325
2019-03-05T10:11:47.814Z,305
2019-03-05T10:12:47.812Z,300
2019-03-05T10:13:47.825Z,285
2019-03-05T10:14:48.069Z,235
2019-03-05T10:15:48.322Z,295
2019-03-05T10:16:48.306Z,290
2019-03-05T10:17:49.844Z,280
2019-03-05T10:18:47.937Z,280
2019-03-05T10:19:48.309Z,285
2019-03-05T10:20:48.301Z,280
2019-03-05T10:21:55.525Z,265
2019-03-05T10:22:48.282Z,270
2019-03-05T10:23:47.761Z,280
2019-03-05T10:24:47.762Z,280
2019-03-05T10:25:48.018Z,280
2019-03-05T10:26:47.528Z,270
2019-03-05T10:27:47.742Z,275
2019-03-05T10:28:47.986Z,285
2019-03-05T10:29:48.279Z,280
2019-03-05T10:30:48.016Z,290
2019-03-05T10:31:48.255Z,300
2019-03-05T10:32:47.997Z,300
2019-03-05T10:33:47.777Z,335
2019-03-05T10:34:48.001Z,255
2019-03-05T10:35:47.980Z,320
2019-03-05T10:36:47.792Z,315
2019-03-05T10:37:47.496Z,295
2019-03-05T10:38:59.965Z,275
2019-03-05T10:39:47.964Z,315
2019-03-05T10:40:47.971Z,310
2019-03-05T10:41:49.837Z,245
2019-03-05T10:42:50.270Z,245
2019-03-05T10:43:47.691Z,275
2019-03-05T10:44:47.688Z,260
2019-03-05T10:45:48.194Z,335
2019-03-05T10:46:48.200Z,285
2019-03-05T10:47:47.931Z,340
2019-03-05T10:48:47.698Z,325
2019-03-05T10:49:47.938Z,345
2019-03-05T10:50:47.964Z,330
2019-03-05T10:51:47.923Z,350
2019-03-05T10:52:47.656Z,355
2019-03-05T10:53:47.937Z,350
2019-03-05T10:54:47.920Z,345
2019-03-05T10:55:47.432Z,345
2019-03-05T10:56:48.150Z,340
2019-03-05T10:57:49.234Z,315
2019-03-05T10:58:48.152Z,350
2019-03-05T10:59:48.183Z,310
2019-03-05T11:00:48.226Z,345
2019-03-05T11:01:47.879Z,345
2019-03-05T11:02:48.118Z,350
2019-03-05T11:03:48.135Z,355
2019-03-05T11:04:57.010Z,350
2019-03-05T11:05:47.630Z,355
2019-03-05T11:06:47.874Z,345
2019-03-05T11:07:48.119Z,325
2019-03-05T11:08:47.852Z,345
2019-03-05T11:09:48.095Z,350
2019-03-05T11:10:50.407Z,345
2019-03-05T11:11:47.866Z,345
2019-03-05T11:12:47.833Z,340
2019-03-05T11:13:47.871Z,335
2019-03-05T11:14:47.844Z,330
2019-03-05T11:15:48.088Z,330
2019-03-05T11:16:49.851Z,330
2019-03-05T11:17:47.346Z,325
2019-03-05T11:18:47.829Z,330
2019-03-05T11:19:47.858Z,315
2019-03-05T11:20:47.814Z,310
2019-03-05T11:21:47.813Z,305
2019-03-05T11:22:47.823Z,305
2019-03-05T11:23:47.808Z,310
2019-03-05T11:24:47.556Z,310
2019-03-05T11:25:48.061Z,310
2019-03-05T11:26:47.801Z,310
2019-03-05T11:27:47.810Z,315
2019-03-05T11:28:47.641Z,310
2019-03-05T11:29:47.540Z,315
2019-03-05T11:30:47.787Z,310
2019-03-05T11:31:48.041Z,315
2019-03-05T11:32:48.077Z,310
2019-03-05T11:33:48.025Z,310
2019-03-05T11:34:48.027Z,315
2019-03-05T11:35:48.578Z,315
2019-03-05T11:36:47.781Z,310
2019-03-05T11:37:48.024Z,320
2019-03-05T11:38:48.540Z,305
2019-03-05T11:39:49.668Z,290
2019-03-05T11:40:48.024Z,280
2019-03-05T11:41:48.032Z,280
2019-03-05T11:42:47.507Z,285
2019-03-05T11:43:48.353Z,310
2019-03-05T11:45:11.667Z,300
2019-03-05T11:45:48.004Z,290
2019-03-05T11:46:47.761Z,285
2019-03-05T11:47:47.503Z,280
2019-03-05T11:48:47.974Z,290
2019-03-05T11:49:47.508Z,280
2019-03-05T11:50:47.733Z,280
2019-03-05T11:51:47.966Z,265
2019-03-05T11:52:47.998Z,275
2019-03-05T11:53:47.982Z,265
2019-03-05T11:54:47.486Z,260
2019-03-05T11:55:47.741Z,250
2019-03-05T11:56:47.989Z,255
2019-03-05T11:57:47.473Z,250
2019-03-05T11:58:47.715Z,225
2019-03-05T11:59:47.721Z,200
2019-03-05T12:00:47.980Z,190
2019-03-05T12:01:47.967Z,210
2019-03-05T12:02:47.461Z,230
2019-03-05T12:03:47.466Z,240
2019-03-05T12:04:47.708Z,255
2019-03-05T12:05:47.969Z,255
2019-03-05T12:06:47.744Z,235
2019-03-05T12:07:48.627Z,220
2019-03-05T12:08:47.675Z,200
2019-03-05T12:09:47.426Z,200
2019-03-05T12:10:47.929Z,215
2019-03-05T12:11:47.930Z,210
2019-03-05T12:12:47.711Z,205
2019-03-05T12:13:47.942Z,225
2019-03-05T12:14:47.480Z,235
2019-03-05T12:15:47.927Z,235
2019-03-05T12:16:48.943Z,230
2019-03-05T12:17:47.648Z,225
2019-03-05T12:18:47.664Z,230
2019-03-05T12:19:47.648Z,220
2019-03-05T12:20:47.916Z,225
2019-03-05T12:21:47.413Z,230
2019-03-05T12:22:47.143Z,240
2019-03-05T12:23:54.177Z,240
2019-03-05T12:24:47.425Z,240
2019-03-05T12:25:49.033Z,240
2019-03-05T12:26:47.619Z,235
2019-03-05T12:27:47.914Z,235
2019-03-05T12:28:49.398Z,230
2019-03-05T12:29:47.427Z,225
2019-03-05T12:30:47.624Z,235
2019-03-05T12:31:47.612Z,235
2019-03-05T12:32:47.860Z,240
2019-03-05T12:33:47.603Z,235
2019-03-05T12:34:47.384Z,230
2019-03-05T12:35:47.592Z,230
2019-03-05T12:36:47.853Z,215
2019-03-05T12:37:47.590Z,205
2019-03-05T12:38:48.821Z,200
2019-03-05T12:39:47.595Z,200
2019-03-05T12:40:47.840Z,215
2019-03-05T12:41:47.833Z,210
2019-03-05T12:42:47.322Z,215
2019-03-05T12:43:47.561Z,205
2019-03-05T12:44:47.568Z,205
2019-03-05T12:45:47.591Z,210
2019-03-05T12:46:47.818Z,205
2019-03-05T12:47:47.811Z,195
2019-03-05T12:48:49.975Z,190
2019-03-05T12:49:47.344Z,175
2019-03-05T12:50:47.542Z,165
2019-03-05T12:51:47.577Z,170
2019-03-05T12:52:47.551Z,170
2019-03-05T12:53:47.594Z,165
2019-03-05T12:54:47.791Z,160
2019-03-05T12:55:47.802Z,165
2019-03-05T12:56:47.805Z,165
2019-03-05T12:57:47.518Z,165
2019-03-05T12:58:47.526Z,160
2019-03-05T12:59:47.765Z,160
2019-03-05T13:00:47.285Z,155
2019-03-05T13:01:47.272Z,155
2019-03-05T13:02:47.504Z,160
2019-03-05T13:03:47.257Z,160
2019-03-05T13:04:46.994Z,165
2019-03-05T13:05:47.510Z,165
2019-03-05T13:06:47.504Z,170
2019-03-05T13:07:47.495Z,175
2019-03-05T13:08:47.502Z,175
2019-03-05T13:09:52.470Z,175
2019-03-05T13:10:50.059Z,170
2019-03-05T13:11:52.503Z,165
2019-03-05T13:12:49.402Z,155
2019-03-05T13:13:51.280Z,155
2019-03-05T13:14:51.882Z,155
2019-03-05T13:15:47.201Z,160
2019-03-05T13:16:49.144Z,170
2019-03-05T13:17:51.443Z,170
2019-03-05T13:18:46.953Z,175
2019-03-05T13:19:56.173Z,175
2019-03-05T13:20:47.704Z,175
2019-03-05T13:21:53.546Z,170
2019-03-05T13:22:49.686Z,170
2019-03-05T13:23:47.419Z,170
2019-03-05T13:24:52.029Z,165
2019-03-05T13:25:47.531Z,150
2019-03-05T13:26:54.118Z,150
2019-03-05T13:27:47.424Z,155
2019-03-05T13:28:49.949Z,140
2019-03-05T13:29:47.158Z,140
2019-03-05T13:30:49.413Z,145
2019-03-05T13:31:48.832Z,150
2019-03-05T13:32:47.429Z,150
2019-03-05T13:33:51.205Z,150
2019-03-05T13:34:47.157Z,145
2019-03-05T13:35:47.409Z,145
2019-03-05T13:36:50.551Z,135
2019-03-05T13:37:47.619Z,135
2019-03-05T13:38:52.533Z,135
2019-03-05T13:39:47.112Z,135
2019-03-05T13:40:49.589Z,130
2019-03-05T13:41:50.356Z,125
2019-03-05T13:42:47.066Z,125
2019-03-05T13:43:47.392Z,120
2019-03-05T13:44:47.614Z,115
2019-03-05T13:45:55.012Z,110
2019-03-05T13:46:47.343Z,105
2019-03-05T13:47:51.324Z,100
2019-03-05T13:48:57.681Z,90
2019-03-05T13:49:56.232Z,85
2019-03-05T13:50:47.325Z,75
2019-03-05T13:51:47.330Z,75
2019-03-05T13:52:48.072Z,75
2019-03-05T13:53:47.074Z,85
2019-03-05T13:54:53.191Z,90
2019-03-05T13:55:49.630Z,80
2019-03-05T13:56:51.721Z,85
2019-03-05T13:57:51.311Z,85
2019-03-05T13:58:46.810Z,90
2019-03-05T13:59:47.145Z,90
2019-03-05T14:00:47.529Z,90
2019-03-05T14:01:47.063Z,95
2019-03-05T14:02:57.673Z,95
2019-03-05T14:03:47.528Z,95
2019-03-05T14:04:47.277Z,90
2019-03-05T14:05:47.039Z,85
2019-03-05T14:06:48.028Z,80
2019-03-05T14:07:47.364Z,80
2019-03-05T14:08:47.283Z,75
2019-03-05T14:09:47.533Z,75
2019-03-05T14:10:47.907Z,80
2019-03-05T14:11:47.291Z,80
2019-03-05T14:12:46.989Z,85
2019-03-05T14:13:47.345Z,90
2019-03-05T14:14:47.268Z,95